createdAt,value
2022-08-17T00:01:28.962Z,23.40
2022-08-17T00:03:57.873Z,23.44
2022-08-17T00:06:29.043Z,23.54
2022-08-17T00:09:01.073Z,23.67
2022-08-17T00:11:34.492Z,23.47
2022-08-17T00:14:08.361Z,23.13
2022-08-17T00:16:55.283Z,23.20
2022-08-17T00:19:25.540Z,22.95
2022-08-17T00:22:29.916Z,23.33
2022-08-17T00:24:40.337Z,23.02
2022-08-17T00:27:06.666Z,23.21
2022-08-17T00:29:32.988Z,23.32
2022-08-17T00:32:01.578Z,23.49
2022-08-17T00:34:47.865Z,23.10
2022-08-17T00:37:14.202Z,22.84
2022-08-17T00:39:43.917Z,23.11
2022-08-17T00:42:18.787Z,23.00
2022-08-17T00:44:45.384Z,22.98
2022-08-17T00:47:11.839Z,22.87
2022-08-17T00:49:38.197Z,23.35
2022-08-17T00:52:12.334Z,23.24
2022-08-17T00:54:42.544Z,22.86
2022-08-17T00:57:19.946Z,22.81
2022-08-17T01:00:02.032Z,23.17
2022-08-17T01:02:34.324Z,23.08
2022-08-17T01:05:08.843Z,23.12
2022-08-17T01:07:35.369Z,22.93
2022-08-17T01:10:08.398Z,23.03
2022-08-17T01:12:54.834Z,22.67
2022-08-17T01:15:21.774Z,22.44
2022-08-17T01:17:48.175Z,22.21
2022-08-17T01:20:14.898Z,22.22
2022-08-17T01:22:41.235Z,22.31
2022-08-17T01:25:08.709Z,22.45
2022-08-17T01:27:36.877Z,22.63
2022-08-17T01:30:58.275Z,22.62
2022-08-17T01:32:55.790Z,22.29
2022-08-17T01:35:22.156Z,22.83
2022-08-17T01:37:48.477Z,22.97
2022-08-17T01:40:22.501Z,22.58
2022-08-17T01:42:55.205Z,22.81
2022-08-17T01:45:25.903Z,22.62
2022-08-17T01:47:53.517Z,22.35
2022-08-17T01:50:25.497Z,22.81
2022-08-17T01:52:56.464Z,22.87
2022-08-17T01:55:29.342Z,22.21
2022-08-17T01:57:55.745Z,22.01
2022-08-17T02:00:22.333Z,21.73
2022-08-17T02:02:48.766Z,21.83
2022-08-17T02:05:15.289Z,22.34
2022-08-17T02:07:59.872Z,22.23
2022-08-17T02:10:32.902Z,22.59
2022-08-17T02:13:03.384Z,21.92
2022-08-17T02:15:29.859Z,21.76
2022-08-17T02:17:56.160Z,21.83
2022-08-17T02:20:42.140Z,21.78
2022-08-17T02:23:10.815Z,22.03
2022-08-17T02:25:39.735Z,21.99
2022-08-17T02:28:06.282Z,21.70
2022-08-17T02:30:59.722Z,22.19
2022-08-17T02:33:18.987Z,22.30
2022-08-17T02:35:46.783Z,22.38
2022-08-17T02:38:13.287Z,22.22
2022-08-17T02:40:39.857Z,22.09
2022-08-17T02:43:08.164Z,21.96
2022-08-17T02:45:35.873Z,21.89
2022-08-17T02:48:03.560Z,21.77
2022-08-17T02:50:29.986Z,21.62
2022-08-17T02:53:01.899Z,21.64
2022-08-17T02:55:34.615Z,21.82
2022-08-17T02:58:01.337Z,22.16
2022-08-17T03:00:31.422Z,21.93
2022-08-17T03:02:57.793Z,21.67
2022-08-17T03:05:27.381Z,21.84
2022-08-17T03:07:54.157Z,22.21
2022-08-17T03:10:21.043Z,21.65
2022-08-17T03:12:47.989Z,21.91
2022-08-17T03:15:18.820Z,21.57
2022-08-17T03:17:45.210Z,21.23
2022-08-17T03:20:13.535Z,21.27
2022-08-17T03:22:42.480Z,21.40
2022-08-17T03:25:19.946Z,21.33
2022-08-17T03:27:49.014Z,21.59
2022-08-17T03:30:18.300Z,21.74
2022-08-17T03:32:49.944Z,21.70
2022-08-17T03:35:19.620Z,21.56
2022-08-17T03:37:45.943Z,21.58
2022-08-17T03:40:13.389Z,21.74
2022-08-17T03:42:40.674Z,21.32
2022-08-17T03:45:15.587Z,21.80
2022-08-17T03:47:42.098Z,21.52
2022-08-17T03:50:11.385Z,21.47
2022-08-17T03:52:40.798Z,21.57
2022-08-17T03:55:07.497Z,21.11
2022-08-17T03:57:33.798Z,21.12
2022-08-17T04:00:00.254Z,21.16
2022-08-17T04:02:29.975Z,21.54
2022-08-17T04:04:57.217Z,21.30
2022-08-17T04:07:26.282Z,21.38
2022-08-17T04:09:53.011Z,21.62
2022-08-17T04:12:22.412Z,21.76
2022-08-17T04:14:53.740Z,21.64
2022-08-17T04:17:24.155Z,20.76
2022-08-17T04:19:50.727Z,21.17
2022-08-17T04:22:33.070Z,21.33
2022-08-17T04:25:15.341Z,21.43
2022-08-17T04:27:41.756Z,21.43
2022-08-17T04:30:09.308Z,21.36
2022-08-17T04:33:03.874Z,21.24
2022-08-17T04:35:42.684Z,21.66
2022-08-17T04:38:11.582Z,21.05
2022-08-17T04:40:38.283Z,21.80
2022-08-17T04:43:08.048Z,21.94
2022-08-17T04:45:39.359Z,21.90
2022-08-17T04:48:05.957Z,21.72
2022-08-17T04:50:39.409Z,21.80
2022-08-17T04:53:05.664Z,21.96
2022-08-17T04:55:31.993Z,21.61
2022-08-17T04:57:58.332Z,21.68
2022-08-17T05:00:25.327Z,21.94
2022-08-17T05:02:54.592Z,22.13
2022-08-17T05:05:23.237Z,22.09
2022-08-17T05:07:55.105Z,22.09
2022-08-17T05:10:23.076Z,21.78
2022-08-17T05:13:20.010Z,22.22
2022-08-17T05:15:48.130Z,22.09
2022-08-17T05:18:16.795Z,22.11
2022-08-17T05:20:44.400Z,22.22
2022-08-17T05:23:15.181Z,22.11
2022-08-17T05:25:51.436Z,21.78
2022-08-17T05:28:20.835Z,21.54
2022-08-17T05:30:50.928Z,21.98
2022-08-17T05:33:21.073Z,22.37
2022-08-17T05:35:48.812Z,22.67
2022-08-17T05:38:17.489Z,23.00
2022-08-17T05:40:44.559Z,22.99
2022-08-17T05:43:20.597Z,23.11
2022-08-17T05:46:00.056Z,23.25
2022-08-17T05:48:36.783Z,23.35
2022-08-17T05:51:27.572Z,23.28
2022-08-17T05:54:21.973Z,23.02
2022-08-17T05:57:15.990Z,23.17
2022-08-17T06:00:01.558Z,23.18
2022-08-17T06:02:50.349Z,23.57
2022-08-17T06:05:35.173Z,23.78
2022-08-17T06:08:20.715Z,23.56
2022-08-17T06:11:15.977Z,23.86
2022-08-17T06:14:08.197Z,23.85
2022-08-17T06:16:39.204Z,23.59
2022-08-17T06:19:18.896Z,23.21
2022-08-17T06:21:50.970Z,24.08
2022-08-17T06:24:42.096Z,23.67
2022-08-17T06:27:33.780Z,24.13
2022-08-17T06:30:09.448Z,24.31
2022-08-17T06:32:39.069Z,24.68
2022-08-17T06:35:08.733Z,24.66
2022-08-17T06:37:53.944Z,24.00
2022-08-17T06:40:35.246Z,23.72
2022-08-17T06:43:13.335Z,23.83
2022-08-17T06:46:08.078Z,23.74
2022-08-17T06:48:43.456Z,24.34
2022-08-17T06:51:23.654Z,24.00
2022-08-17T06:54:02.513Z,23.75
2022-08-17T06:56:52.685Z,24.64
2022-08-17T06:59:25.510Z,24.85
2022-08-17T07:01:52.865Z,24.64
2022-08-17T07:04:25.062Z,23.99
2022-08-17T07:06:56.929Z,25.04
2022-08-17T07:09:36.986Z,25.84
2022-08-17T07:12:19.468Z,25.62
2022-08-17T07:14:52.768Z,25.38
2022-08-17T07:17:20.132Z,25.62
2022-08-17T07:19:49.538Z,24.98
2022-08-17T07:22:50.325Z,25.29
2022-08-17T07:25:21.538Z,26.51
2022-08-17T07:27:51.024Z,26.20
2022-08-17T07:30:25.400Z,26.27
2022-08-17T07:33:14.960Z,25.44
2022-08-17T07:35:44.320Z,26.15
2022-08-17T07:38:24.209Z,25.66
2022-08-17T07:40:55.314Z,26.44
2022-08-17T07:43:41.876Z,25.92
2022-08-17T07:46:15.025Z,25.99
2022-08-17T07:48:42.542Z,26.86
2022-08-17T07:51:20.254Z,25.83
2022-08-17T07:53:49.771Z,26.01
2022-08-17T07:56:34.734Z,27.38
2022-08-17T07:59:11.873Z,26.99
2022-08-17T08:01:41.898Z,27.72
2022-08-17T08:04:37.576Z,29.26
2022-08-17T08:07:27.199Z,27.85
2022-08-17T08:10:08.431Z,29.25
2022-08-17T08:12:41.602Z,30.61
2022-08-17T08:15:19.090Z,33.80
2022-08-17T08:17:59.551Z,32.27
2022-08-17T08:20:52.028Z,30.11
2022-08-17T08:23:31.869Z,30.49
2022-08-17T08:26:26.525Z,29.35
2022-08-17T08:28:59.361Z,28.79
2022-08-17T08:32:03.265Z,28.02
2022-08-17T08:35:02.315Z,28.54
2022-08-17T08:37:44.796Z,30.10
2022-08-17T08:40:38.835Z,28.36
2022-08-17T08:43:32.138Z,28.89
2022-08-17T08:46:13.351Z,28.91
2022-08-17T08:49:10.231Z,28.83
2022-08-17T08:51:59.133Z,28.87
2022-08-17T08:54:32.965Z,28.96
2022-08-17T08:57:25.707Z,29.09
2022-08-17T09:00:10.298Z,29.14
2022-08-17T09:03:01.195Z,29.51
2022-08-17T09:06:06.344Z,29.26
2022-08-17T09:08:59.361Z,28.80
2022-08-17T09:12:02.779Z,29.11
2022-08-17T09:14:47.101Z,28.77
2022-08-17T09:17:20.343Z,29.58
2022-08-17T09:19:46.561Z,27.93
2022-08-17T09:22:33.193Z,27.76
2022-08-17T09:25:23.125Z,28.42
2022-08-17T09:28:06.367Z,28.55
2022-08-17T09:30:44.198Z,28.06
2022-08-17T09:33:15.565Z,27.77
2022-08-17T09:35:47.560Z,28.58
2022-08-17T09:38:26.284Z,28.94
2022-08-17T09:41:05.388Z,28.82
2022-08-17T09:43:41.580Z,28.14
2022-08-17T09:46:15.539Z,28.20
2022-08-17T09:48:50.201Z,28.20
2022-08-17T09:51:26.014Z,28.33
2022-08-17T09:53:52.380Z,28.56
2022-08-17T09:56:35.307Z,28.51
2022-08-17T09:59:38.341Z,28.69
2022-08-17T10:02:59.968Z,28.76
2022-08-17T10:05:40.314Z,28.64
2022-08-17T10:08:26.589Z,29.13
2022-08-17T10:11:05.026Z,30.27
2022-08-17T10:13:52.800Z,29.24
2022-08-17T10:16:31.749Z,29.53
2022-08-17T10:19:15.812Z,29.15
2022-08-17T10:21:47.333Z,29.48
2022-08-17T10:24:33.781Z,28.82
2022-08-17T10:27:02.994Z,29.19
2022-08-17T10:29:49.686Z,28.91
2022-08-17T10:32:29.312Z,29.15
2022-08-17T10:35:17.548Z,29.32
2022-08-17T10:38:17.589Z,28.75
2022-08-17T10:40:55.500Z,29.10
2022-08-17T10:44:37.117Z,29.40
2022-08-17T10:47:03.161Z,30.30
2022-08-17T10:49:35.911Z,29.75
2022-08-17T10:52:26.845Z,29.21
2022-08-17T10:54:58.083Z,29.22
2022-08-17T10:57:31.136Z,28.89
2022-08-17T11:00:00.828Z,29.30
2022-08-17T11:02:43.375Z,29.47
2022-08-17T11:05:28.818Z,29.30
2022-08-17T11:08:03.414Z,30.07
2022-08-17T11:10:54.893Z,30.10
2022-08-17T11:14:06.855Z,29.55
2022-08-17T11:16:43.589Z,29.90
2022-08-17T11:19:47.583Z,29.74
2022-08-17T11:22:38.713Z,29.54
2022-08-17T11:25:17.907Z,30.58
2022-08-17T11:27:45.974Z,30.25
2022-08-17T11:30:49.522Z,29.75
2022-08-17T11:33:33.874Z,29.36
2022-08-17T11:36:26.389Z,29.32
2022-08-17T11:39:20.222Z,29.95
2022-08-17T11:41:52.989Z,30.09
2022-08-17T11:44:34.065Z,29.95
2022-08-17T11:47:31.303Z,29.91
2022-08-17T11:50:10.621Z,30.19
2022-08-17T11:52:46.030Z,29.95
2022-08-17T11:55:37.520Z,29.88
2022-08-17T11:58:33.979Z,30.82
2022-08-17T12:01:06.183Z,30.39
2022-08-17T12:03:32.578Z,29.94
2022-08-17T12:06:06.834Z,29.78
2022-08-17T12:08:39.383Z,30.36
2022-08-17T12:11:16.254Z,30.60
2022-08-17T12:14:03.215Z,30.01
2022-08-17T12:16:29.551Z,29.69
2022-08-17T12:19:01.538Z,29.94
2022-08-17T12:21:49.002Z,29.76
2022-08-17T12:24:29.187Z,29.86
2022-08-17T12:27:00.253Z,31.55
2022-08-17T12:29:35.448Z,30.60
2022-08-17T12:32:06.019Z,29.95
2022-08-17T12:34:40.060Z,30.13
2022-08-17T12:37:23.999Z,30.74
2022-08-17T12:40:00.635Z,30.30
2022-08-17T12:42:30.548Z,30.92
2022-08-17T12:44:57.595Z,30.21
2022-08-17T12:47:24.449Z,30.30
2022-08-17T12:50:07.118Z,30.31
2022-08-17T12:52:38.340Z,31.03
2022-08-17T12:55:21.661Z,30.60
2022-08-17T12:57:56.423Z,30.95
2022-08-17T13:00:27.264Z,30.94
2022-08-17T13:02:55.016Z,30.63
2022-08-17T13:05:34.976Z,30.73
2022-08-17T13:08:03.717Z,31.00
2022-08-17T13:10:33.620Z,30.33
2022-08-17T13:13:16.463Z,30.43
2022-08-17T13:15:52.776Z,30.57
2022-08-17T13:18:37.452Z,31.41
2022-08-17T13:21:04.330Z,31.95
2022-08-17T13:23:31.058Z,30.97
2022-08-17T13:26:05.171Z,30.90
2022-08-17T13:28:36.021Z,31.22
2022-08-17T13:31:27.798Z,30.86
2022-08-17T13:34:17.479Z,30.61
2022-08-17T13:36:46.868Z,30.52
2022-08-17T13:39:21.776Z,31.70
2022-08-17T13:41:50.261Z,31.27
2022-08-17T13:44:36.245Z,30.99
2022-08-17T13:47:05.397Z,31.04
2022-08-17T13:49:46.504Z,31.15
2022-08-17T13:52:44.543Z,31.49
2022-08-17T13:55:23.400Z,31.49
2022-08-17T13:58:04.205Z,31.11
2022-08-17T14:00:35.794Z,30.35
2022-08-17T14:03:04.440Z,30.88
2022-08-17T14:05:31.738Z,31.27
2022-08-17T14:08:02.695Z,31.40
2022-08-17T14:10:33.220Z,31.09
2022-08-17T14:12:59.887Z,30.63
2022-08-17T14:15:54.633Z,30.92
2022-08-17T14:18:12.857Z,31.25
2022-08-17T14:20:39.544Z,31.07
2022-08-17T14:23:05.920Z,30.42
2022-08-17T14:25:32.305Z,30.46
2022-08-17T14:27:59.026Z,29.91
2022-08-17T14:30:29.752Z,30.17
2022-08-17T14:32:57.799Z,30.46
2022-08-17T14:35:24.856Z,30.02
2022-08-17T14:37:51.975Z,30.51
2022-08-17T14:40:20.621Z,30.34
2022-08-17T14:42:50.203Z,30.66
2022-08-17T14:45:31.494Z,30.56
2022-08-17T14:48:00.403Z,30.16
2022-08-17T14:50:26.881Z,29.48
2022-08-17T14:52:53.305Z,28.56
2022-08-17T14:55:22.512Z,28.40
2022-08-17T14:57:48.902Z,28.89
2022-08-17T15:00:16.093Z,28.79
2022-08-17T15:02:56.863Z,28.35
2022-08-17T15:05:25.741Z,28.32
2022-08-17T15:07:52.860Z,27.48
2022-08-17T15:10:20.056Z,27.45
2022-08-17T15:12:46.370Z,27.54
2022-08-17T15:15:15.677Z,27.08
2022-08-17T15:17:44.485Z,26.80
2022-08-17T15:20:24.743Z,26.40
2022-08-17T15:22:51.393Z,26.32
2022-08-17T15:25:18.593Z,26.23
2022-08-17T15:27:45.078Z,26.46
2022-08-17T15:30:12.084Z,26.91
2022-08-17T15:32:40.218Z,27.22
2022-08-17T15:35:08.838Z,27.21
2022-08-17T15:37:35.221Z,27.38
2022-08-17T15:40:01.958Z,27.48
2022-08-17T15:42:28.469Z,26.84
2022-08-17T15:44:54.914Z,26.46
2022-08-17T15:47:22.056Z,27.00
2022-08-17T15:49:48.601Z,27.05
2022-08-17T15:52:25.042Z,27.10
2022-08-17T15:54:57.324Z,27.20
2022-08-17T15:57:24.633Z,27.12
2022-08-17T15:59:55.118Z,26.44
2022-08-17T16:03:45.668Z,26.74
2022-08-17T16:05:22.163Z,27.08
2022-08-17T16:07:51.962Z,26.72
2022-08-17T16:10:19.356Z,26.97
2022-08-17T16:12:47.982Z,27.35
2022-08-17T16:15:15.019Z,26.96
2022-08-17T16:17:41.843Z,26.43
2022-08-17T16:20:19.593Z,26.82
2022-08-17T16:22:48.531Z,27.67
2022-08-17T16:25:18.343Z,27.02
2022-08-17T16:27:45.832Z,27.19
2022-08-17T16:30:17.419Z,27.56
2022-08-17T16:32:45.046Z,27.61
2022-08-17T16:35:13.752Z,27.77
2022-08-17T16:37:40.113Z,27.42
2022-08-17T16:40:08.657Z,27.48
2022-08-17T16:42:37.516Z,26.18
2022-08-17T16:45:25.405Z,25.66
2022-08-17T16:47:54.672Z,25.65
2022-08-17T16:50:23.749Z,25.74
2022-08-17T16:52:50.631Z,26.50
2022-08-17T16:55:19.767Z,26.22
2022-08-17T16:57:49.955Z,25.82
2022-08-17T17:00:18.732Z,26.35
2022-08-17T17:02:47.854Z,25.97
2022-08-17T17:05:37.573Z,26.97
2022-08-17T17:08:15.861Z,27.18
2022-08-17T17:10:46.565Z,26.63
2022-08-17T17:13:31.705Z,26.68
2022-08-17T17:16:19.884Z,26.58
2022-08-17T17:19:07.463Z,26.29
2022-08-17T17:21:46.811Z,26.95
2022-08-17T17:24:21.726Z,26.54
2022-08-17T17:27:07.381Z,26.77
2022-08-17T17:30:10.468Z,26.59
2022-08-17T17:32:44.475Z,26.63
2022-08-17T17:35:17.403Z,26.61
2022-08-17T17:37:45.319Z,26.49
2022-08-17T17:40:40.039Z,26.34
2022-08-17T17:43:34.942Z,26.55
2022-08-17T17:46:27.637Z,26.19
2022-08-17T17:48:56.251Z,26.79
2022-08-17T17:52:03.667Z,26.18
2022-08-17T17:54:59.292Z,26.60
2022-08-17T17:57:47.137Z,26.70
2022-08-17T18:00:38.637Z,27.06
2022-08-17T18:03:25.389Z,27.03
2022-08-17T18:06:04.563Z,26.72
2022-08-17T18:08:46.973Z,26.55
2022-08-17T18:11:24.957Z,26.66
2022-08-17T18:14:29.993Z,26.15
2022-08-17T18:16:59.464Z,26.39
2022-08-17T18:19:27.912Z,26.08
2022-08-17T18:22:16.951Z,26.30
2022-08-17T18:24:47.029Z,26.70
2022-08-17T18:27:33.450Z,26.20
2022-08-17T18:30:21.038Z,26.38
2022-08-17T18:32:47.381Z,26.04
2022-08-17T18:35:13.680Z,25.78
2022-08-17T18:37:51.269Z,25.88
2022-08-17T18:40:17.898Z,25.94
2022-08-17T18:43:01.227Z,25.68
2022-08-17T18:45:32.883Z,25.62
2022-08-17T18:47:59.996Z,25.70
2022-08-17T18:50:36.019Z,26.29
2022-08-17T18:53:33.177Z,26.14
2022-08-17T18:56:17.682Z,25.88
2022-08-17T18:58:51.960Z,25.86
2022-08-17T19:01:21.015Z,26.06
2022-08-17T19:03:49.121Z,25.91
2022-08-17T19:06:30.984Z,25.98
2022-08-17T19:08:57.329Z,25.70
2022-08-17T19:11:28.436Z,25.70
2022-08-17T19:14:10.273Z,25.74
2022-08-17T19:16:51.508Z,25.39
2022-08-17T19:19:36.214Z,25.44
2022-08-17T19:22:29.282Z,25.30
2022-08-17T19:25:10.776Z,25.70
2022-08-17T19:27:49.213Z,25.07
2022-08-17T19:30:17.345Z,25.13
2022-08-17T19:32:43.717Z,25.40
2022-08-17T19:35:17.122Z,25.66
2022-08-17T19:37:49.872Z,25.27
2022-08-17T19:40:54.181Z,25.32
2022-08-17T19:43:41.916Z,25.05
2022-08-17T19:46:39.180Z,24.80
2022-08-17T19:49:20.397Z,25.16
2022-08-17T19:52:18.828Z,25.38
2022-08-17T19:55:04.480Z,25.49
2022-08-17T19:57:55.886Z,25.04
2022-08-17T20:00:22.736Z,24.99
2022-08-17T20:03:07.829Z,25.16
2022-08-17T20:06:11.438Z,25.19
2022-08-17T20:08:40.958Z,25.28
2022-08-17T20:11:14.918Z,24.87
2022-08-17T20:13:44.460Z,24.95
2022-08-17T20:16:11.966Z,24.48
2022-08-17T20:18:55.266Z,24.24
2022-08-17T20:21:28.660Z,24.44
2022-08-17T20:24:37.728Z,24.67
2022-08-17T20:27:20.106Z,24.71
2022-08-17T20:30:10.799Z,24.42
2022-08-17T20:32:52.271Z,24.31
2022-08-17T20:35:31.725Z,24.50
2022-08-17T20:38:03.913Z,24.16
2022-08-17T20:40:32.196Z,24.34
2022-08-17T20:42:59.701Z,23.96
2022-08-17T20:45:49.733Z,24.36
2022-08-17T20:48:36.742Z,23.82
2022-08-17T20:51:17.382Z,24.13
2022-08-17T20:53:47.873Z,24.24
2022-08-17T20:56:42.176Z,24.08
2022-08-17T20:59:21.157Z,24.24
2022-08-17T21:02:18.665Z,24.08
2022-08-17T21:04:59.382Z,24.30
2022-08-17T21:07:43.166Z,24.03
2022-08-17T21:10:25.547Z,24.08
2022-08-17T21:13:10.822Z,23.74
2022-08-17T21:15:55.143Z,23.53
2022-08-17T21:18:41.747Z,23.69
2022-08-17T21:21:28.304Z,23.95
2022-08-17T21:24:07.280Z,24.09
2022-08-17T21:27:11.061Z,23.51
2022-08-17T21:29:53.396Z,23.49
2022-08-17T21:32:27.714Z,23.60
2022-08-17T21:35:06.247Z,24.04
2022-08-17T21:38:01.858Z,23.52
2022-08-17T21:40:32.460Z,23.87
2022-08-17T21:43:19.802Z,23.81
2022-08-17T21:45:55.064Z,23.83
2022-08-17T21:48:23.744Z,23.70
2022-08-17T21:51:01.064Z,23.88
2022-08-17T21:53:51.040Z,23.55
2022-08-17T21:56:32.729Z,23.69
2022-08-17T21:59:15.819Z,23.25
2022-08-17T22:01:43.156Z,23.33
2022-08-17T22:04:09.648Z,23.69
2022-08-17T22:06:39.907Z,23.49
2022-08-17T22:09:09.576Z,22.84
2022-08-17T22:11:56.060Z,22.54
2022-08-17T22:14:53.444Z,22.56
2022-08-17T22:17:37.069Z,23.10
2022-08-17T22:20:32.729Z,23.10
2022-08-17T22:22:58.990Z,23.05
2022-08-17T22:25:27.851Z,23.15
2022-08-17T22:28:00.174Z,23.04
2022-08-17T22:30:43.200Z,23.05
2022-08-17T22:33:35.420Z,23.18
2022-08-17T22:36:11.397Z,22.95
2022-08-17T22:38:38.941Z,23.20
2022-08-17T22:41:46.300Z,22.38
2022-08-17T22:44:16.799Z,22.90
2022-08-17T22:46:57.647Z,23.04
2022-08-17T22:49:26.096Z,23.37
2022-08-17T22:52:01.273Z,23.26
2022-08-17T22:54:28.055Z,23.50
2022-08-17T22:56:59.787Z,23.19
2022-08-17T22:59:54.586Z,23.70
2022-08-17T23:02:34.067Z,23.31
2022-08-17T23:05:09.633Z,23.01
2022-08-17T23:07:36.690Z,23.20
2022-08-17T23:10:03.866Z,23.60
2022-08-17T23:12:31.110Z,23.19
2022-08-17T23:14:59.854Z,23.25
2022-08-17T23:17:28.428Z,23.22
2022-08-17T23:19:54.920Z,23.37
2022-08-17T23:22:21.423Z,23.25
2022-08-17T23:24:48.472Z,23.04
2022-08-17T23:27:14.973Z,23.19
2022-08-17T23:29:41.383Z,23.20
2022-08-17T23:32:10.467Z,23.35
2022-08-17T23:34:37.871Z,23.22
2022-08-17T23:37:04.634Z,23.22
2022-08-17T23:39:31.201Z,23.33
2022-08-17T23:41:58.881Z,23.48
2022-08-17T23:44:26.245Z,23.01
2022-08-17T23:46:53.608Z,22.99
2022-08-17T23:49:20.300Z,23.28
2022-08-17T23:51:47.846Z,23.47
2022-08-17T23:54:22.293Z,23.42
2022-08-17T23:56:48.662Z,23.22
2022-08-17T23:59:17.718Z,23.77
